sensor_id;sensor_type;location;lat;lon;timestamp;P1;durP1;ratioP1;P2;durP2;ratioP2
9860;SDS011;4969;52.304;4.968;2023-08-31T00:00:33;2.10;;;1.90;;
9860;SDS011;4969;52.304;4.968;2023-08-31T00:03:01;3.03;;;2.08;;
9860;SDS011;4969;52.304;4.968;2023-08-31T00:05:27;3.33;;;2.20;;
9860;SDS011;4969;52.304;4.968;2023-08-31T00:07:55;3.40;;;2.33;;
9860;SDS011;4969;52.304;4.968;2023-08-31T00:10:23;6.10;;;2.58;;
9860;SDS011;4969;52.304;4.968;2023-08-31T00:12:50;4.07;;;1.98;;
9860;SDS011;4969;52.304;4.968;2023-08-31T00:15:16;1.85;;;1.70;;
9860;SDS011;4969;52.304;4.968;2023-08-31T00:17:43;4.53;;;1.90;;
9860;SDS011;4969;52.304;4.968;2023-08-31T00:20:09;3.15;;;2.58;;
9860;SDS011;4969;52.304;4.968;2023-08-31T00:22:38;2.75;;;2.25;;
9860;SDS011;4969;52.304;4.968;2023-08-31T00:25:04;2.35;;;2.05;;
9860;SDS011;4969;52.304;4.968;2023-08-31T00:27:34;2.40;;;2.20;;
9860;SDS011;4969;52.304;4.968;2023-08-31T00:30:02;3.67;;;2.50;;
9860;SDS011;4969;52.304;4.968;2023-08-31T00:32:31;4.38;;;2.80;;
9860;SDS011;4969;52.304;4.968;2023-08-31T00:34:59;4.45;;;2.88;;
9860;SDS011;4969;52.304;4.968;2023-08-31T00:37:25;3.78;;;3.00;;
9860;SDS011;4969;52.304;4.968;2023-08-31T00:39:52;6.38;;;2.92;;
9860;SDS011;4969;52.304;4.968;2023-08-31T00:42:19;3.20;;;2.90;;
9860;SDS011;4969;52.304;4.968;2023-08-31T00:44:48;3.47;;;2.65;;
9860;SDS011;4969;52.304;4.968;2023-08-31T00:47:14;2.85;;;2.65;;
9860;SDS011;4969;52.304;4.968;2023-08-31T00:49:42;5.50;;;3.30;;
9860;SDS011;4969;52.304;4.968;2023-08-31T00:52:09;3.80;;;3.40;;
9860;SDS011;4969;52.304;4.968;2023-08-31T00:54:35;4.00;;;3.60;;
9860;SDS011;4969;52.304;4.968;2023-08-31T00:57:03;5.78;;;3.63;;
9860;SDS011;4969;52.304;4.968;2023-08-31T00:59:29;4.25;;;3.17;;
9860;SDS011;4969;52.304;4.968;2023-08-31T01:02:01;4.95;;;3.28;;
9860;SDS011;4969;52.304;4.968;2023-08-31T01:04:33;2.95;;;2.70;;
9860;SDS011;4969;52.304;4.968;2023-08-31T01:07:09;5.88;;;3.30;;
9860;SDS011;4969;52.304;4.968;2023-08-31T01:09:45;5.65;;;3.20;;
9860;SDS011;4969;52.304;4.968;2023-08-31T01:12:21;5.22;;;3.03;;
9860;SDS011;4969;52.304;4.968;2023-08-31T01:14:56;4.25;;;2.55;;
9860;SDS011;4969;52.304;4.968;2023-08-31T01:17:31;4.38;;;2.50;;
9860;SDS011;4969;52.304;4.968;2023-08-31T01:19:59;4.85;;;2.67;;
9860;SDS011;4969;52.304;4.968;2023-08-31T01:22:29;3.42;;;2.17;;
9860;SDS011;4969;52.304;4.968;2023-08-31T01:25:01;3.17;;;2.20;;
9860;SDS011;4969;52.304;4.968;2023-08-31T01:27:29;2.90;;;2.47;;
9860;SDS011;4969;52.304;4.968;2023-08-31T01:29:56;2.20;;;2.00;;
9860;SDS011;4969;52.304;4.968;2023-08-31T01:32:23;3.60;;;2.20;;
9860;SDS011;4969;52.304;4.968;2023-08-31T01:34:50;3.65;;;2.28;;
9860;SDS011;4969;52.304;4.968;2023-08-31T01:37:19;2.30;;;2.10;;
9860;SDS011;4969;52.304;4.968;2023-08-31T01:39:52;2.50;;;2.30;;
9860;SDS011;4969;52.304;4.968;2023-08-31T01:42:24;2.85;;;2.17;;
9860;SDS011;4969;52.304;4.968;2023-08-31T01:44:53;2.63;;;2.38;;
9860;SDS011;4969;52.304;4.968;2023-08-31T01:47:22;2.08;;;1.98;;
9860;SDS011;4969;52.304;4.968;2023-08-31T01:49:49;2.63;;;2.08;;
9860;SDS011;4969;52.304;4.968;2023-08-31T01:52:17;2.90;;;1.80;;
9860;SDS011;4969;52.304;4.968;2023-08-31T01:54:43;2.40;;;1.45;;
9860;SDS011;4969;52.304;4.968;2023-08-31T01:57:10;2.75;;;1.63;;
9860;SDS011;4969;52.304;4.968;2023-08-31T01:59:38;3.25;;;1.63;;
9860;SDS011;4969;52.304;4.968;2023-08-31T02:02:04;2.97;;;1.85;;
9860;SDS011;4969;52.304;4.968;2023-08-31T02:04:31;1.58;;;1.33;;
9860;SDS011;4969;52.304;4.968;2023-08-31T02:06:58;3.08;;;1.40;;
9860;SDS011;4969;52.304;4.968;2023-08-31T02:09:24;4.78;;;1.70;;
9860;SDS011;4969;52.304;4.968;2023-08-31T02:11:51;2.03;;;1.58;;
9860;SDS011;4969;52.304;4.968;2023-08-31T02:14:18;1.50;;;1.38;;
9860;SDS011;4969;52.304;4.968;2023-08-31T02:16:46;3.78;;;1.50;;
9860;SDS011;4969;52.304;4.968;2023-08-31T02:19:12;3.10;;;1.88;;
9860;SDS011;4969;52.304;4.968;2023-08-31T02:21:39;2.67;;;1.63;;
9860;SDS011;4969;52.304;4.968;2023-08-31T02:24:06;5.03;;;1.60;;
9860;SDS011;4969;52.304;4.968;2023-08-31T02:26:34;2.35;;;1.88;;
9860;SDS011;4969;52.304;4.968;2023-08-31T02:29:02;2.67;;;1.45;;
9860;SDS011;4969;52.304;4.968;2023-08-31T02:31:28;3.50;;;1.58;;
9860;SDS011;4969;52.304;4.968;2023-08-31T02:33:56;3.28;;;1.70;;
9860;SDS011;4969;52.304;4.968;2023-08-31T02:36:23;2.95;;;1.45;;
9860;SDS011;4969;52.304;4.968;2023-08-31T02:38:50;3.88;;;1.70;;
9860;SDS011;4969;52.304;4.968;2023-08-31T02:41:18;1.65;;;1.42;;
9860;SDS011;4969;52.304;4.968;2023-08-31T02:43:44;2.63;;;1.40;;
9860;SDS011;4969;52.304;4.968;2023-08-31T02:46:11;2.63;;;1.80;;
9860;SDS011;4969;52.304;4.968;2023-08-31T02:48:38;3.50;;;1.65;;
9860;SDS011;4969;52.304;4.968;2023-08-31T02:51:06;2.10;;;1.42;;
9860;SDS011;4969;52.304;4.968;2023-08-31T02:53:32;2.85;;;1.30;;
9860;SDS011;4969;52.304;4.968;2023-08-31T02:55:59;1.50;;;1.20;;
9860;SDS011;4969;52.304;4.968;2023-08-31T02:58:26;1.73;;;1.25;;
9860;SDS011;4969;52.304;4.968;2023-08-31T03:00:52;1.60;;;1.00;;
9860;SDS011;4969;52.304;4.968;2023-08-31T03:03:19;1.30;;;1.20;;
9860;SDS011;4969;52.304;4.968;2023-08-31T03:05:45;1.77;;;1.33;;
9860;SDS011;4969;52.304;4.968;2023-08-31T03:08:13;2.10;;;0.98;;
9860;SDS011;4969;52.304;4.968;2023-08-31T03:10:40;3.30;;;1.27;;
9860;SDS011;4969;52.304;4.968;2023-08-31T03:13:07;2.38;;;1.30;;
9860;SDS011;4969;52.304;4.968;2023-08-31T03:15:33;1.73;;;1.50;;
9860;SDS011;4969;52.304;4.968;2023-08-31T03:18:00;1.67;;;1.15;;
9860;SDS011;4969;52.304;4.968;2023-08-31T03:20:27;2.70;;;1.38;;
9860;SDS011;4969;52.304;4.968;2023-08-31T03:22:53;2.55;;;1.30;;
9860;SDS011;4969;52.304;4.968;2023-08-31T03:25:21;1.10;;;1.00;;
9860;SDS011;4969;52.304;4.968;2023-08-31T03:27:49;3.13;;;1.30;;
9860;SDS011;4969;52.304;4.968;2023-08-31T03:30:16;1.85;;;1.40;;
9860;SDS011;4969;52.304;4.968;2023-08-31T03:32:42;2.88;;;1.30;;
9860;SDS011;4969;52.304;4.968;2023-08-31T03:35:09;4.10;;;1.30;;
9860;SDS011;4969;52.304;4.968;2023-08-31T03:37:35;2.20;;;1.30;;
9860;SDS011;4969;52.304;4.968;2023-08-31T03:40:02;1.77;;;1.10;;
9860;SDS011;4969;52.304;4.968;2023-08-31T03:42:32;3.72;;;0.95;;
9860;SDS011;4969;52.304;4.968;2023-08-31T03:44:59;2.25;;;1.13;;
9860;SDS011;4969;52.304;4.968;2023-08-31T03:47:26;3.80;;;1.33;;
9860;SDS011;4969;52.304;4.968;2023-08-31T03:49:53;3.03;;;1.42;;
9860;SDS011;4969;52.304;4.968;2023-08-31T03:52:19;6.00;;;1.48;;
9860;SDS011;4969;52.304;4.968;2023-08-31T03:54:46;2.42;;;1.25;;
9860;SDS011;4969;52.304;4.968;2023-08-31T03:57:12;3.25;;;1.30;;
9860;SDS011;4969;52.304;4.968;2023-08-31T03:59:40;3.25;;;1.20;;
9860;SDS011;4969;52.304;4.968;2023-08-31T04:02:07;5.57;;;1.50;;
9860;SDS011;4969;52.304;4.968;2023-08-31T04:04:33;1.95;;;1.45;;
9860;SDS011;4969;52.304;4.968;2023-08-31T04:07:00;3.22;;;1.00;;
9860;SDS011;4969;52.304;4.968;2023-08-31T04:09:27;4.45;;;1.65;;
9860;SDS011;4969;52.304;4.968;2023-08-31T04:11:55;2.55;;;1.05;;
9860;SDS011;4969;52.304;4.968;2023-08-31T04:14:21;2.63;;;1.30;;
9860;SDS011;4969;52.304;4.968;2023-08-31T04:16:49;3.33;;;1.75;;
9860;SDS011;4969;52.304;4.968;2023-08-31T04:19:16;4.53;;;1.45;;
9860;SDS011;4969;52.304;4.968;2023-08-31T04:21:42;3.35;;;1.67;;
9860;SDS011;4969;52.304;4.968;2023-08-31T04:24:09;4.25;;;1.67;;
9860;SDS011;4969;52.304;4.968;2023-08-31T04:26:36;4.82;;;1.52;;
9860;SDS011;4969;52.304;4.968;2023-08-31T04:29:02;4.85;;;1.50;;
9860;SDS011;4969;52.304;4.968;2023-08-31T04:31:30;4.00;;;1.30;;
9860;SDS011;4969;52.304;4.968;2023-08-31T04:33:58;5.32;;;1.40;;
9860;SDS011;4969;52.304;4.968;2023-08-31T04:36:25;1.77;;;1.13;;
9860;SDS011;4969;52.304;4.968;2023-08-31T04:38:52;1.05;;;0.90;;
9860;SDS011;4969;52.304;4.968;2023-08-31T04:41:19;3.85;;;1.05;;
9860;SDS011;4969;52.304;4.968;2023-08-31T04:43:45;2.83;;;1.20;;
9860;SDS011;4969;52.304;4.968;2023-08-31T04:46:13;3.55;;;1.15;;
9860;SDS011;4969;52.304;4.968;2023-08-31T04:48:40;5.53;;;1.20;;
9860;SDS011;4969;52.304;4.968;2023-08-31T04:51:09;2.55;;;1.23;;
9860;SDS011;4969;52.304;4.968;2023-08-31T04:53:52;3.85;;;1.40;;
9860;SDS011;4969;52.304;4.968;2023-08-31T04:56:19;2.22;;;1.08;;
9860;SDS011;4969;52.304;4.968;2023-08-31T04:58:45;3.10;;;1.13;;
9860;SDS011;4969;52.304;4.968;2023-08-31T05:01:12;6.53;;;1.48;;
9860;SDS011;4969;52.304;4.968;2023-08-31T05:03:39;2.88;;;1.20;;
9860;SDS011;4969;52.304;4.968;2023-08-31T05:06:07;2.45;;;1.25;;
9860;SDS011;4969;52.304;4.968;2023-08-31T05:08:34;2.92;;;1.42;;
9860;SDS011;4969;52.304;4.968;2023-08-31T05:11:00;2.20;;;1.25;;
9860;SDS011;4969;52.304;4.968;2023-08-31T05:13:27;3.63;;;1.23;;
9860;SDS011;4969;52.304;4.968;2023-08-31T05:15:54;4.05;;;1.52;;
9860;SDS011;4969;52.304;4.968;2023-08-31T05:18:20;3.95;;;1.30;;
9860;SDS011;4969;52.304;4.968;2023-08-31T05:20:47;2.05;;;1.00;;
9860;SDS011;4969;52.304;4.968;2023-08-31T05:23:16;3.58;;;1.10;;
9860;SDS011;4969;52.304;4.968;2023-08-31T05:25:42;2.00;;;0.93;;
9860;SDS011;4969;52.304;4.968;2023-08-31T05:28:09;2.97;;;1.08;;
9860;SDS011;4969;52.304;4.968;2023-08-31T05:30:36;1.73;;;1.38;;
9860;SDS011;4969;52.304;4.968;2023-08-31T05:33:02;2.47;;;1.10;;
9860;SDS011;4969;52.304;4.968;2023-08-31T05:35:29;1.67;;;0.75;;
9860;SDS011;4969;52.304;4.968;2023-08-31T05:37:56;1.90;;;0.85;;
9860;SDS011;4969;52.304;4.968;2023-08-31T05:40:24;5.00;;;1.13;;
9860;SDS011;4969;52.304;4.968;2023-08-31T05:42:51;2.28;;;0.88;;
9860;SDS011;4969;52.304;4.968;2023-08-31T05:45:17;1.02;;;0.98;;
9860;SDS011;4969;52.304;4.968;2023-08-31T05:47:44;1.83;;;0.93;;
9860;SDS011;4969;52.304;4.968;2023-08-31T05:50:10;2.95;;;1.20;;
9860;SDS011;4969;52.304;4.968;2023-08-31T05:52:37;2.05;;;1.00;;
9860;SDS011;4969;52.304;4.968;2023-08-31T05:55:08;1.90;;;1.20;;
9860;SDS011;4969;52.304;4.968;2023-08-31T05:57:36;1.90;;;1.20;;
9860;SDS011;4969;52.304;4.968;2023-08-31T06:00:04;3.30;;;1.15;;
9860;SDS011;4969;52.304;4.968;2023-08-31T06:02:32;1.90;;;0.85;;
9860;SDS011;4969;52.304;4.968;2023-08-31T06:04:59;4.60;;;1.20;;
9860;SDS011;4969;52.304;4.968;2023-08-31T06:07:25;2.33;;;1.00;;
9860;SDS011;4969;52.304;4.968;2023-08-31T06:09:54;3.30;;;1.08;;
9860;SDS011;4969;52.304;4.968;2023-08-31T06:12:21;1.13;;;0.90;;
9860;SDS011;4969;52.304;4.968;2023-08-31T06:14:49;2.75;;;1.15;;
9860;SDS011;4969;52.304;4.968;2023-08-31T06:17:15;2.88;;;1.00;;
9860;SDS011;4969;52.304;4.968;2023-08-31T06:19:42;2.08;;;1.40;;
9860;SDS011;4969;52.304;4.968;2023-08-31T06:22:09;3.10;;;1.27;;
9860;SDS011;4969;52.304;4.968;2023-08-31T06:24:36;2.92;;;1.40;;
9860;SDS011;4969;52.304;4.968;2023-08-31T06:27:03;3.28;;;1.20;;
9860;SDS011;4969;52.304;4.968;2023-08-31T06:29:30;4.65;;;1.48;;
9860;SDS011;4969;52.304;4.968;2023-08-31T06:31:57;1.77;;;1.17;;
9860;SDS011;4969;52.304;4.968;2023-08-31T06:34:24;4.65;;;1.63;;
9860;SDS011;4969;52.304;4.968;2023-08-31T06:36:51;4.00;;;1.42;;
9860;SDS011;4969;52.304;4.968;2023-08-31T06:39:18;3.17;;;1.60;;
9860;SDS011;4969;52.304;4.968;2023-08-31T06:41:44;3.45;;;1.33;;
9860;SDS011;4969;52.304;4.968;2023-08-31T06:44:11;3.80;;;1.20;;
9860;SDS011;4969;52.304;4.968;2023-08-31T06:46:37;3.45;;;1.58;;
9860;SDS011;4969;52.304;4.968;2023-08-31T06:49:05;2.42;;;1.27;;
9860;SDS011;4969;52.304;4.968;2023-08-31T06:51:32;2.38;;;1.38;;
9860;SDS011;4969;52.304;4.968;2023-08-31T06:53:59;5.57;;;1.67;;
9860;SDS011;4969;52.304;4.968;2023-08-31T06:56:31;3.47;;;1.48;;
9860;SDS011;4969;52.304;4.968;2023-08-31T06:58:58;2.38;;;1.38;;
9860;SDS011;4969;52.304;4.968;2023-08-31T07:01:24;4.15;;;1.60;;
9860;SDS011;4969;52.304;4.968;2023-08-31T07:03:52;2.28;;;1.20;;
9860;SDS011;4969;52.304;4.968;2023-08-31T07:06:20;5.32;;;1.70;;
9860;SDS011;4969;52.304;4.968;2023-08-31T07:08:46;4.95;;;2.03;;
9860;SDS011;4969;52.304;4.968;2023-08-31T07:11:14;4.15;;;1.80;;
9860;SDS011;4969;52.304;4.968;2023-08-31T07:13:40;5.43;;;1.58;;
9860;SDS011;4969;52.304;4.968;2023-08-31T07:16:07;4.57;;;1.80;;
9860;SDS011;4969;52.304;4.968;2023-08-31T07:18:34;4.93;;;1.65;;
9860;SDS011;4969;52.304;4.968;2023-08-31T07:21:02;5.53;;;1.50;;
9860;SDS011;4969;52.304;4.968;2023-08-31T07:23:31;6.05;;;2.30;;
9860;SDS011;4969;52.304;4.968;2023-08-31T07:25:57;4.97;;;1.90;;
9860;SDS011;4969;52.304;4.968;2023-08-31T07:28:25;3.45;;;1.65;;
9860;SDS011;4969;52.304;4.968;2023-08-31T07:31:00;5.35;;;1.95;;
9860;SDS011;4969;52.304;4.968;2023-08-31T07:33:28;8.35;;;2.30;;
9860;SDS011;4969;52.304;4.968;2023-08-31T07:35:55;5.82;;;1.95;;
9860;SDS011;4969;52.304;4.968;2023-08-31T07:38:22;6.60;;;1.95;;
9860;SDS011;4969;52.304;4.968;2023-08-31T07:40:50;6.80;;;1.60;;
9860;SDS011;4969;52.304;4.968;2023-08-31T07:43:16;4.70;;;1.70;;
9860;SDS011;4969;52.304;4.968;2023-08-31T07:45:43;6.10;;;2.25;;
9860;SDS011;4969;52.304;4.968;2023-08-31T07:48:10;4.15;;;1.90;;
9860;SDS011;4969;52.304;4.968;2023-08-31T07:50:37;4.50;;;1.83;;
9860;SDS011;4969;52.304;4.968;2023-08-31T07:53:03;8.45;;;2.22;;
9860;SDS011;4969;52.304;4.968;2023-08-31T07:55:30;4.43;;;1.73;;
9860;SDS011;4969;52.304;4.968;2023-08-31T07:57:58;5.20;;;1.60;;
9860;SDS011;4969;52.304;4.968;2023-08-31T08:00:25;5.20;;;1.92;;
9860;SDS011;4969;52.304;4.968;2023-08-31T08:02:51;5.28;;;2.00;;
9860;SDS011;4969;52.304;4.968;2023-08-31T08:05:18;5.18;;;1.70;;
9860;SDS011;4969;52.304;4.968;2023-08-31T08:07:45;4.13;;;1.67;;
9860;SDS011;4969;52.304;4.968;2023-08-31T08:10:12;2.80;;;1.50;;
9860;SDS011;4969;52.304;4.968;2023-08-31T08:12:39;6.65;;;1.75;;
9860;SDS011;4969;52.304;4.968;2023-08-31T08:15:10;4.15;;;1.65;;
9860;SDS011;4969;52.304;4.968;2023-08-31T08:17:36;6.88;;;1.98;;
9860;SDS011;4969;52.304;4.968;2023-08-31T08:20:03;6.60;;;2.17;;
9860;SDS011;4969;52.304;4.968;2023-08-31T08:22:31;4.80;;;1.80;;
9860;SDS011;4969;52.304;4.968;2023-08-31T08:24:57;7.93;;;2.38;;
9860;SDS011;4969;52.304;4.968;2023-08-31T08:27:24;5.72;;;2.13;;
9860;SDS011;4969;52.304;4.968;2023-08-31T08:29:51;15.52;;;2.20;;
9860;SDS011;4969;52.304;4.968;2023-08-31T08:32:19;6.63;;;2.00;;
9860;SDS011;4969;52.304;4.968;2023-08-31T08:34:46;7.28;;;1.90;;
9860;SDS011;4969;52.304;4.968;2023-08-31T08:37:12;6.18;;;1.83;;
9860;SDS011;4969;52.304;4.968;2023-08-31T08:39:39;6.28;;;1.80;;
9860;SDS011;4969;52.304;4.968;2023-08-31T08:42:05;6.03;;;2.40;;
9860;SDS011;4969;52.304;4.968;2023-08-31T08:44:35;6.80;;;2.08;;
9860;SDS011;4969;52.304;4.968;2023-08-31T08:47:03;8.30;;;2.60;;
9860;SDS011;4969;52.304;4.968;2023-08-31T08:49:31;5.90;;;1.73;;
9860;SDS011;4969;52.304;4.968;2023-08-31T08:52:00;7.53;;;2.00;;
9860;SDS011;4969;52.304;4.968;2023-08-31T08:54:27;5.47;;;1.90;;
9860;SDS011;4969;52.304;4.968;2023-08-31T08:56:54;4.30;;;1.88;;
9860;SDS011;4969;52.304;4.968;2023-08-31T08:59:21;8.77;;;1.77;;
9860;SDS011;4969;52.304;4.968;2023-08-31T09:01:48;5.85;;;2.08;;
9860;SDS011;4969;52.304;4.968;2023-08-31T09:04:15;5.43;;;1.92;;
9860;SDS011;4969;52.304;4.968;2023-08-31T09:06:43;5.40;;;1.67;;
9860;SDS011;4969;52.304;4.968;2023-08-31T09:09:10;5.70;;;1.73;;
9860;SDS011;4969;52.304;4.968;2023-08-31T09:11:36;4.72;;;1.75;;
9860;SDS011;4969;52.304;4.968;2023-08-31T09:14:13;5.05;;;1.83;;
9860;SDS011;4969;52.304;4.968;2023-08-31T09:16:42;6.70;;;1.90;;
9860;SDS011;4969;52.304;4.968;2023-08-31T09:19:17;7.43;;;1.73;;
9860;SDS011;4969;52.304;4.968;2023-08-31T09:21:46;4.93;;;1.58;;
9860;SDS011;4969;52.304;4.968;2023-08-31T09:24:13;6.22;;;1.80;;
9860;SDS011;4969;52.304;4.968;2023-08-31T09:26:43;5.93;;;1.52;;
9860;SDS011;4969;52.304;4.968;2023-08-31T09:29:10;4.38;;;1.45;;
9860;SDS011;4969;52.304;4.968;2023-08-31T09:31:36;5.93;;;1.80;;
9860;SDS011;4969;52.304;4.968;2023-08-31T09:34:03;3.40;;;1.70;;
9860;SDS011;4969;52.304;4.968;2023-08-31T09:36:30;7.93;;;1.88;;
9860;SDS011;4969;52.304;4.968;2023-08-31T09:38:59;7.20;;;1.70;;
9860;SDS011;4969;52.304;4.968;2023-08-31T09:41:25;4.90;;;1.73;;
9860;SDS011;4969;52.304;4.968;2023-08-31T09:43:52;8.10;;;1.85;;
9860;SDS011;4969;52.304;4.968;2023-08-31T09:46:19;5.05;;;1.55;;
9860;SDS011;4969;52.304;4.968;2023-08-31T09:48:47;7.70;;;1.90;;
9860;SDS011;4969;52.304;4.968;2023-08-31T09:51:14;5.55;;;2.03;;
9860;SDS011;4969;52.304;4.968;2023-08-31T09:53:42;4.70;;;1.75;;
9860;SDS011;4969;52.304;4.968;2023-08-31T09:56:13;6.05;;;1.80;;
9860;SDS011;4969;52.304;4.968;2023-08-31T09:58:46;6.68;;;1.65;;
9860;SDS011;4969;52.304;4.968;2023-08-31T10:01:13;7.85;;;1.80;;
9860;SDS011;4969;52.304;4.968;2023-08-31T10:03:40;5.72;;;1.90;;
9860;SDS011;4969;52.304;4.968;2023-08-31T10:06:07;6.07;;;1.98;;
9860;SDS011;4969;52.304;4.968;2023-08-31T10:08:35;6.30;;;1.90;;
9860;SDS011;4969;52.304;4.968;2023-08-31T10:11:02;8.23;;;1.98;;
9860;SDS011;4969;52.304;4.968;2023-08-31T10:13:32;5.82;;;1.63;;
9860;SDS011;4969;52.304;4.968;2023-08-31T10:16:03;6.68;;;1.95;;
9860;SDS011;4969;52.304;4.968;2023-08-31T10:18:31;4.30;;;1.80;;
9860;SDS011;4969;52.304;4.968;2023-08-31T10:21:00;5.25;;;1.60;;
9860;SDS011;4969;52.304;4.968;2023-08-31T10:23:28;6.75;;;2.05;;
9860;SDS011;4969;52.304;4.968;2023-08-31T10:26:04;6.20;;;1.75;;
9860;SDS011;4969;52.304;4.968;2023-08-31T10:28:38;3.50;;;1.50;;
9860;SDS011;4969;52.304;4.968;2023-08-31T10:31:07;5.50;;;2.00;;
9860;SDS011;4969;52.304;4.968;2023-08-31T10:33:35;6.65;;;2.05;;
9860;SDS011;4969;52.304;4.968;2023-08-31T10:36:09;6.50;;;2.00;;
9860;SDS011;4969;52.304;4.968;2023-08-31T10:38:37;5.57;;;1.88;;
9860;SDS011;4969;52.304;4.968;2023-08-31T10:41:19;8.27;;;2.35;;
9860;SDS011;4969;52.304;4.968;2023-08-31T10:43:49;6.38;;;2.22;;
9860;SDS011;4969;52.304;4.968;2023-08-31T10:46:27;6.35;;;2.10;;
9860;SDS011;4969;52.304;4.968;2023-08-31T10:48:56;7.18;;;2.05;;
9860;SDS011;4969;52.304;4.968;2023-08-31T10:51:27;4.20;;;1.73;;
9860;SDS011;4969;52.304;4.968;2023-08-31T10:54:08;4.43;;;1.70;;
9860;SDS011;4969;52.304;4.968;2023-08-31T10:59:21;3.22;;;1.52;;
9860;SDS011;4969;52.304;4.968;2023-08-31T11:01:51;5.05;;;1.90;;
9860;SDS011;4969;52.304;4.968;2023-08-31T11:04:22;4.28;;;1.40;;
9860;SDS011;4969;52.304;4.968;2023-08-31T11:06:49;3.65;;;1.60;;
9860;SDS011;4969;52.304;4.968;2023-08-31T11:09:31;7.32;;;3.60;;
9860;SDS011;4969;52.304;4.968;2023-08-31T11:11:58;4.65;;;1.70;;
9860;SDS011;4969;52.304;4.968;2023-08-31T11:14:26;4.78;;;1.60;;
9860;SDS011;4969;52.304;4.968;2023-08-31T11:16:53;18.70;;;8.40;;
9860;SDS011;4969;52.304;4.968;2023-08-31T11:19:19;8.40;;;3.67;;
9860;SDS011;4969;52.304;4.968;2023-08-31T11:21:46;15.18;;;5.72;;
9860;SDS011;4969;52.304;4.968;2023-08-31T11:24:13;13.00;;;5.05;;
9860;SDS011;4969;52.304;4.968;2023-08-31T11:26:40;10.02;;;3.83;;
9860;SDS011;4969;52.304;4.968;2023-08-31T11:29:07;8.05;;;2.88;;
9860;SDS011;4969;52.304;4.968;2023-08-31T11:31:38;8.00;;;2.08;;
9860;SDS011;4969;52.304;4.968;2023-08-31T11:34:06;3.60;;;1.52;;
9860;SDS011;4969;52.304;4.968;2023-08-31T11:36:32;6.22;;;2.92;;
9860;SDS011;4969;52.304;4.968;2023-08-31T11:39:00;5.93;;;3.13;;
9860;SDS011;4969;52.304;4.968;2023-08-31T11:41:30;6.00;;;1.90;;
9860;SDS011;4969;52.304;4.968;2023-08-31T11:43:57;5.25;;;2.15;;
9860;SDS011;4969;52.304;4.968;2023-08-31T11:46:23;3.53;;;1.80;;
9860;SDS011;4969;52.304;4.968;2023-08-31T11:48:52;6.95;;;2.75;;
9860;SDS011;4969;52.304;4.968;2023-08-31T11:51:19;4.88;;;2.67;;
9860;SDS011;4969;52.304;4.968;2023-08-31T11:53:46;6.75;;;3.15;;
9860;SDS011;4969;52.304;4.968;2023-08-31T11:56:13;5.30;;;2.53;;
9860;SDS011;4969;52.304;4.968;2023-08-31T11:58:40;7.70;;;2.53;;
9860;SDS011;4969;52.304;4.968;2023-08-31T12:01:07;8.05;;;3.08;;
9860;SDS011;4969;52.304;4.968;2023-08-31T12:03:41;6.22;;;1.75;;
9860;SDS011;4969;52.304;4.968;2023-08-31T12:06:10;5.30;;;2.13;;
9860;SDS011;4969;52.304;4.968;2023-08-31T12:08:36;4.47;;;2.67;;
9860;SDS011;4969;52.304;4.968;2023-08-31T12:11:03;5.85;;;2.72;;
9860;SDS011;4969;52.304;4.968;2023-08-31T12:13:32;3.83;;;1.75;;
9860;SDS011;4969;52.304;4.968;2023-08-31T12:15:59;5.07;;;1.63;;
9860;SDS011;4969;52.304;4.968;2023-08-31T12:18:29;5.00;;;1.98;;
9860;SDS011;4969;52.304;4.968;2023-08-31T12:20:56;6.75;;;2.00;;
9860;SDS011;4969;52.304;4.968;2023-08-31T12:23:25;3.08;;;1.33;;
9860;SDS011;4969;52.304;4.968;2023-08-31T12:25:52;2.60;;;1.70;;
9860;SDS011;4969;52.304;4.968;2023-08-31T12:28:20;3.53;;;1.85;;
9860;SDS011;4969;52.304;4.968;2023-08-31T12:30:47;4.22;;;2.35;;
9860;SDS011;4969;52.304;4.968;2023-08-31T12:33:15;4.82;;;1.90;;
9860;SDS011;4969;52.304;4.968;2023-08-31T12:35:42;3.22;;;2.17;;
9860;SDS011;4969;52.304;4.968;2023-08-31T12:38:09;6.20;;;2.92;;
9860;SDS011;4969;52.304;4.968;2023-08-31T12:40:37;8.15;;;3.65;;
9860;SDS011;4969;52.304;4.968;2023-08-31T12:43:04;5.20;;;2.90;;
9860;SDS011;4969;52.304;4.968;2023-08-31T12:45:31;4.53;;;1.50;;
9860;SDS011;4969;52.304;4.968;2023-08-31T12:47:58;6.78;;;3.83;;
9860;SDS011;4969;52.304;4.968;2023-08-31T12:50:24;2.10;;;1.52;;
9860;SDS011;4969;52.304;4.968;2023-08-31T12:52:51;3.28;;;1.58;;
9860;SDS011;4969;52.304;4.968;2023-08-31T12:55:18;2.72;;;1.52;;
9860;SDS011;4969;52.304;4.968;2023-08-31T12:57:46;4.47;;;1.77;;
9860;SDS011;4969;52.304;4.968;2023-08-31T13:00:14;1.63;;;1.20;;
9860;SDS011;4969;52.304;4.968;2023-08-31T13:02:42;5.60;;;2.13;;
9860;SDS011;4969;52.304;4.968;2023-08-31T13:05:10;4.32;;;2.40;;
9860;SDS011;4969;52.304;4.968;2023-08-31T13:07:37;4.03;;;2.10;;
9860;SDS011;4969;52.304;4.968;2023-08-31T13:10:05;3.95;;;2.60;;
9860;SDS011;4969;52.304;4.968;2023-08-31T13:12:32;3.20;;;1.60;;
9860;SDS011;4969;52.304;4.968;2023-08-31T13:15:00;2.95;;;1.42;;
9860;SDS011;4969;52.304;4.968;2023-08-31T13:17:27;1.25;;;0.90;;
9860;SDS011;4969;52.304;4.968;2023-08-31T13:19:54;2.47;;;1.50;;
9860;SDS011;4969;52.304;4.968;2023-08-31T13:22:21;2.30;;;1.30;;
9860;SDS011;4969;52.304;4.968;2023-08-31T13:24:48;3.25;;;1.40;;
9860;SDS011;4969;52.304;4.968;2023-08-31T13:27:14;3.75;;;1.48;;
9860;SDS011;4969;52.304;4.968;2023-08-31T13:29:41;2.70;;;1.50;;
9860;SDS011;4969;52.304;4.968;2023-08-31T13:32:09;3.50;;;1.80;;
9860;SDS011;4969;52.304;4.968;2023-08-31T13:34:36;3.78;;;1.40;;
9860;SDS011;4969;52.304;4.968;2023-08-31T13:37:03;3.25;;;1.70;;
9860;SDS011;4969;52.304;4.968;2023-08-31T13:39:30;2.17;;;1.50;;
9860;SDS011;4969;52.304;4.968;2023-08-31T13:41:56;3.08;;;1.75;;
9860;SDS011;4969;52.304;4.968;2023-08-31T13:44:23;1.90;;;1.67;;
9860;SDS011;4969;52.304;4.968;2023-08-31T13:46:49;2.05;;;1.30;;
9860;SDS011;4969;52.304;4.968;2023-08-31T13:49:17;2.38;;;1.02;;
9860;SDS011;4969;52.304;4.968;2023-08-31T13:51:44;4.25;;;1.60;;
9860;SDS011;4969;52.304;4.968;2023-08-31T13:54:11;3.70;;;1.40;;
9860;SDS011;4969;52.304;4.968;2023-08-31T13:56:38;3.15;;;1.67;;
9860;SDS011;4969;52.304;4.968;2023-08-31T13:59:04;3.08;;;1.60;;
9860;SDS011;4969;52.304;4.968;2023-08-31T14:01:31;2.08;;;1.40;;
9860;SDS011;4969;52.304;4.968;2023-08-31T14:03:57;2.85;;;1.48;;
9860;SDS011;4969;52.304;4.968;2023-08-31T14:06:25;2.78;;;1.40;;
9860;SDS011;4969;52.304;4.968;2023-08-31T14:08:52;2.75;;;1.58;;
9860;SDS011;4969;52.304;4.968;2023-08-31T14:11:19;1.65;;;1.10;;
9860;SDS011;4969;52.304;4.968;2023-08-31T14:13:45;2.58;;;1.30;;
9860;SDS011;4969;52.304;4.968;2023-08-31T14:16:12;1.30;;;1.20;;
9860;SDS011;4969;52.304;4.968;2023-08-31T14:18:39;1.92;;;1.30;;
9860;SDS011;4969;52.304;4.968;2023-08-31T14:21:05;3.03;;;1.40;;
9860;SDS011;4969;52.304;4.968;2023-08-31T14:23:33;2.50;;;1.38;;
9860;SDS011;4969;52.304;4.968;2023-08-31T14:26:00;2.08;;;1.05;;
9860;SDS011;4969;52.304;4.968;2023-08-31T14:28:28;2.70;;;1.40;;
9860;SDS011;4969;52.304;4.968;2023-08-31T14:30:54;4.28;;;1.40;;
9860;SDS011;4969;52.304;4.968;2023-08-31T14:33:21;2.53;;;1.40;;
9860;SDS011;4969;52.304;4.968;2023-08-31T14:35:49;2.28;;;1.17;;
9860;SDS011;4969;52.304;4.968;2023-08-31T14:38:19;3.67;;;1.50;;
9860;SDS011;4969;52.304;4.968;2023-08-31T14:40:49;2.05;;;1.30;;
9860;SDS011;4969;52.304;4.968;2023-08-31T14:43:15;1.85;;;1.45;;
9860;SDS011;4969;52.304;4.968;2023-08-31T14:45:42;5.10;;;1.60;;
9860;SDS011;4969;52.304;4.968;2023-08-31T14:48:09;2.38;;;1.40;;
9860;SDS011;4969;52.304;4.968;2023-08-31T14:50:35;3.08;;;1.20;;
9860;SDS011;4969;52.304;4.968;2023-08-31T14:53:02;3.67;;;1.45;;
9860;SDS011;4969;52.304;4.968;2023-08-31T14:55:28;2.35;;;1.20;;
9860;SDS011;4969;52.304;4.968;2023-08-31T14:57:57;3.78;;;1.33;;
9860;SDS011;4969;52.304;4.968;2023-08-31T15:00:23;3.88;;;1.30;;
9860;SDS011;4969;52.304;4.968;2023-08-31T15:02:50;2.35;;;1.33;;
9860;SDS011;4969;52.304;4.968;2023-08-31T15:05:16;2.95;;;1.10;;
9860;SDS011;4969;52.304;4.968;2023-08-31T15:07:43;2.90;;;1.40;;
9860;SDS011;4969;52.304;4.968;2023-08-31T15:10:10;1.58;;;1.33;;
9860;SDS011;4969;52.304;4.968;2023-08-31T15:12:36;1.80;;;1.35;;
9860;SDS011;4969;52.304;4.968;2023-08-31T15:15:05;3.85;;;1.30;;
9860;SDS011;4969;52.304;4.968;2023-08-31T15:17:33;2.03;;;1.40;;
9860;SDS011;4969;52.304;4.968;2023-08-31T15:19:59;2.33;;;1.25;;